Florida State University, Florida
Current Conditions -  °F | °C
As of 1:53 PM on Thursday 30 Oct 2014 (Local Time) from KTLH Reporting Station
Broken Clouds Broken Clouds  
Wind Chill: 68°   Ceiling: 10000
Heat Index: 68°   Visibility: 10mi
Dew Point: 49°   Wind: 5mph
Humidity: 50%   Direction: 20°NNE
Pressure: 30"   Gusts: NA
Location:  30.4396°N, 84.2807°W
Report Text: KTLH 301753Z 02004KT 10SM FEW035 BKN100 20/09 A3000 RMK AO2 RAB1656E07 SLP156 P0000 6//// T02000094 10211 20167 $
Loading
Personal Weather Stations






























Interactive Weather Map
Tropical Storm Tracking
New forecast layout! Learn more

10-Day Weather Forecast

Advertisements
Track Severe Weather on mobile